Time;durP1;ratioP1;P1;durP2;ratioP2;P2;SDS_P1;SDS_P2;PMS_P1;PMS_P2;Temp;Humidity;BMP_temperature;BMP_pressure;BME280_temperature;BME280_humidity;BME280_pressure;Samples;Min_cycle;Max_cycle;Signal;HPM_P1;HPM_P2
2022/01/25 00:33:26;;;;;;;;;;;;;;;;;;5074832;28;19919;-68
2022/01/25 00:35:51;;;;;;;;;;;;;;;;;;5061242;28;19916;-68
2022/01/25 00:38:16;;;;;;;;;;;;;;;;;;5072474;28;19912;-68
2022/01/25 00:40:41;;;;;;;;;;;;;;;;;;5075861;28;20511;-68
2022/01/25 00:43:06;;;;;;;;;;;;;;;;;;5064553;28;19912;-68
2022/01/25 00:45:31;;;;;;;;;;;;;;;;;;5074533;28;20520;-68
2022/01/25 00:47:57;;;;;;;;;;;;;;;;;;5067810;28;20441;-68
2022/01/25 00:50:22;;;;;;;;;;;;;;;;;;5066499;28;19912;-68
2022/01/25 00:55:13;;;;;;;;;;;;;;;;;;5068436;28;20284;-68
2022/01/25 00:57:38;;;;;;;;;;;;;;;;;;5066819;28;19912;-68
2022/01/25 01:00:03;;;;;;;;;;;;;;;;;;5077821;28;19922;-68
2022/01/25 01:02:28;;;;;;;;;;;;;;;;;;5077124;28;19916;-68
2022/01/25 01:04:53;;;;;;;;;;;;;;;;;;5069544;28;20404;-68
2022/01/25 01:07:25;;;;;;;;;;;;;;;;;;5048566;28;20690;-68
2022/01/25 01:09:51;;;;;;;;;;;;;;;;;;5078045;28;19916;-68
2022/01/25 01:12:44;;;;;;;;;;;;;;;;;;5060778;28;19916;-68
2022/01/25 01:28:49;;;;;;;;;;;;;;;;;;5072549;28;19966;-68
2022/01/25 01:31:24;;;;;;;;;;;;;;;;;;5068933;28;19970;-68
2022/01/25 01:34:21;;;;;;;;;;;;;;;;;;5076560;28;19916;-68
2022/01/25 01:37:29;;;;;;;;;;;;;;;;;;5069167;28;19912;-68
2022/01/25 01:42:50;;;;;;;;;;;;;;;;;;5068344;28;20399;-68
2022/01/25 01:45:30;;;;;;;;;;;;;;;;;;5059188;28;19912;-68
2022/01/25 01:48:01;;;;;;;;;;;;;;;;;;5061223;28;19970;-68
2022/01/25 01:50:29;;;;;;;;;;;;;;;;;;5068718;28;19919;-68
2022/01/25 01:52:55;;;;;;;;;;;;;;;;;;5068237;28;19927;-68
2022/01/25 01:55:20;;;;;;;;;;;;;;;;;;5065127;28;20192;-68
2022/01/25 01:57:48;;;;;;;;;;;;;;;;;;5059822;28;20396;-68
2022/01/25 02:00:13;;;;;;;;;;;;;;;;;;5061249;28;19916;-68
2022/01/25 02:02:39;;;;;;;;;;;;;;;;;;5067086;22;20005;-70
2022/01/25 02:05:04;;;;;;;;;;;;;;;;;;5058032;28;20396;-69
2022/01/25 02:07:29;;;;;;;;;;;;;;;;;;5057211;28;19919;-69
2022/01/25 02:09:54;;;;;;;;;;;;;;;;;;5059821;28;20114;-69
2022/01/25 02:12:19;;;;;;;;;;;;;;;;;;5053983;28;20069;-70
2022/01/25 02:14:44;;;;;;;;;;;;;;;;;;5041325;28;19913;-69
2022/01/25 02:17:37;;;;;;;;;;;;;;;;;;5045454;28;20019;-70
2022/01/25 02:22:38;;;;;;;;;;;;;;;;;;5050312;28;20180;-69
2022/01/25 02:25:04;;;;;;;;;;;;;;;;;;5047400;28;20314;-69
2022/01/25 02:27:29;;;;;;;;;;;;;;;;;;5048199;28;19916;-69
2022/01/25 02:29:54;;;;;;;;;;;;;;;;;;5050315;28;19921;-69
2022/01/25 02:32:19;;;;;;;;;;;;;;;;;;5053934;28;20404;-69
2022/01/25 02:34:44;;;;;;;;;;;;;;;;;;5048348;28;19916;-70
2022/01/25 02:37:09;;;;;;;;;;;;;;;;;;5058063;28;19916;-69
2022/01/25 02:39:35;;;;;;;;;;;;;;;;;;5059123;28;20028;-69
2022/01/25 02:42:01;;;;;;;;;;;;;;;;;;5060896;28;20001;-69
2022/01/25 02:44:28;;;;;;;;;;;;;;;;;;5062056;28;19928;-69
2022/01/25 02:49:18;;;;;;;;;;;;;;;;;;5048488;28;20019;-69
2022/01/25 02:51:43;;;;;;;;;;;;;;;;;;5055773;28;19968;-69
2022/01/25 02:54:08;;;;;;;;;;;;;;;;;;5053843;28;19977;-69
2022/01/25 02:56:34;;;;;;;;;;;;;;;;;;5060276;28;20176;-69
2022/01/25 02:58:59;;;;;;;;;;;;;;;;;;5051389;28;19993;-70
2022/01/25 03:01:24;;;;;;;;;;;;;;;;;;5060219;28;19924;-69
2022/01/25 03:03:50;;;;;;;;;;;;;;;;;;5043353;28;19955;-69
2022/01/25 03:06:15;;;;;;;;;;;;;;;;;;5042239;28;20329;-69
2022/01/25 03:08:40;;;;;;;;;;;;;;;;;;5041991;28;20438;-69
2022/01/25 03:11:05;;;;;;;;;;;;;;;;;;5042499;28;19917;-69
2022/01/25 03:13:47;;;;;;;;;;;;;;;;;;5041624;28;20034;-69
2022/01/25 03:16:18;;;;;;;;;;;;;;;;;;5042692;28;20406;-69
2022/01/25 03:18:46;;;;;;;;;;;;;;;;;;5041238;28;19925;-70
2022/01/25 03:23:52;;;;;;;;;;;;;;;;;;5042073;28;19927;-69
2022/01/25 03:26:17;;;;;;;;;;;;;;;;;;5042235;28;19916;-69
2022/01/25 03:28:42;;;;;;;;;;;;;;;;;;5041435;28;19921;-69
2022/01/25 03:31:07;;;;;;;;;;;;;;;;;;5041656;28;19920;-69
2022/01/25 03:33:32;;;;;;;;;;;;;;;;;;5042124;28;19912;-69
2022/01/25 03:35:57;;;;;;;;;;;;;;;;;;5042321;28;20363;-69
2022/01/25 03:38:22;;;;;;;;;;;;;;;;;;5042012;28;19963;-69
2022/01/25 03:40:47;;;;;;;;;;;;;;;;;;5041641;28;19917;-69
2022/01/25 03:43:14;;;;;;;;;;;;;;;;;;5041783;28;19917;-69
2022/01/25 03:45:42;;;;;;;;;;;;;;;;;;5041547;28;20515;-69
2022/01/25 03:50:35;;;;;;;;;;;;;;;;;;5041455;28;20002;-69
2022/01/25 03:53:01;;;;;;;;;;;;;;;;;;5042369;28;19909;-69
2022/01/25 03:55:26;;;;;;;;;;;;;;;;;;5041870;28;19921;-69
2022/01/25 03:57:51;;;;;;;;;;;;;;;;;;5042347;28;19956;-69
2022/01/25 04:00:16;;;;;;;;;;;;;;;;;;5041226;28;19920;-69
2022/01/25 04:02:49;;;;;;;;;;;;;;;;;;5040626;28;19921;-69
2022/01/25 04:05:21;;;;;;;;;;;;;;;;;;5041366;28;20157;-69
2022/01/25 04:07:50;;;;;;;;;;;;;;;;;;5036676;28;19912;-69
2022/01/25 04:10:17;;;;;;;;;;;;;;;;;;5040916;28;20504;-69
2022/01/25 04:12:42;;;;;;;;;;;;;;;;;;5042101;28;20003;-69
2022/01/25 04:15:07;;;;;;;;;;;;;;;;;;5040608;28;20086;-69
2022/01/25 04:17:34;;;;;;;;;;;;;;;;;;5041722;28;20177;-69
2022/01/25 04:25:37;;;;;;;;;;;;;;;;;;4998037;28;20317;-69
2022/01/25 04:28:02;;;;;;;;;;;;;;;;;;4998719;28;19913;-69
2022/01/25 04:30:27;;;;;;;;;;;;;;;;;;4998113;28;19913;-69
2022/01/25 04:33:05;;;;;;;;;;;;;;;;;;4998557;28;19917;-69
2022/01/25 04:35:45;;;;;;;;;;;;;;;;;;4998665;28;19913;-69
2022/01/25 04:49:10;;;;;;;;;;;;;;;;;;4998433;28;20105;-69
2022/01/25 04:54:21;;;;;;;;;;;;;;;;;;4986825;28;19914;-70
2022/01/25 04:59:34;;;;;;;;;;;;;;;;;;5013183;28;19920;-69
2022/01/25 05:02:12;;;;;;;;;;;;;;;;;;5040289;28;19913;-70
2022/01/25 05:04:43;;;;;;;;;;;;;;;;;;5039717;28;20078;-70
2022/01/25 05:09:55;;;;;;;;;;;;;;;;;;4965514;28;20045;-69
2022/01/25 05:12:31;;;;;;;;;;;;;;;;;;4959893;28;19914;-70
2022/01/25 05:15:01;;;;;;;;;;;;;;;;;;4960135;28;20041;-70
2022/01/25 05:17:39;;;;;;;;;;;;;;;;;;4965444;28;20298;-69
2022/01/25 05:22:50;;;;;;;;;;;;;;;;;;4959284;28;20006;-70
2022/01/25 05:25:15;;;;;;;;;;;;;;;;;;4957937;28;20418;-69
2022/01/25 05:27:40;;;;;;;;;;;;;;;;;;4957732;28;19997;-70
2022/01/25 05:30:05;;;;;;;;;;;;;;;;;;4956837;28;19919;-70
2022/01/25 05:32:32;;;;;;;;;;;;;;;;;;4955653;28;19914;-70
2022/01/25 05:34:57;;;;;;;;;;;;;;;;;;4951642;28;20425;-70
2022/01/25 05:37:22;;;;;;;;;;;;;;;;;;4953951;28;20480;-70
2022/01/25 05:39:49;;;;;;;;;;;;;;;;;;4953500;28;20488;-70
2022/01/25 05:42:27;;;;;;;;;;;;;;;;;;4952988;28;19931;-69
2022/01/25 05:47:18;;;;;;;;;;;;;;;;;;5008061;28;19920;-70
2022/01/25 05:49:45;;;;;;;;;;;;;;;;;;5032976;28;20413;-70
2022/01/25 05:52:10;;;;;;;;;;;;;;;;;;5033191;28;19974;-69
2022/01/25 05:54:35;;;;;;;;;;;;;;;;;;5041022;28;19921;-69
2022/01/25 05:57:00;;;;;;;;;;;;;;;;;;5043803;28;19913;-69
2022/01/25 05:59:25;;;;;;;;;;;;;;;;;;5037362;28;19940;-69
2022/01/25 06:01:51;;;;;;;;;;;;;;;;;;5038171;28;19966;-69
2022/01/25 06:04:16;;;;;;;;;;;;;;;;;;5037709;28;20273;-69
2022/01/25 06:06:41;;;;;;;;;;;;;;;;;;5041927;28;19912;-69
2022/01/25 06:09:06;;;;;;;;;;;;;;;;;;5043647;28;19916;-69
2022/01/25 06:11:32;;;;;;;;;;;;;;;;;;5044035;28;19916;-69
2022/01/25 06:13:57;;;;;;;;;;;;;;;;;;5042785;28;19924;-69
2022/01/25 06:16:23;;;;;;;;;;;;;;;;;;5043428;28;19916;-69
2022/01/25 06:18:48;;;;;;;;;;;;;;;;;;5041871;28;19916;-69
2022/01/25 06:21:13;;;;;;;;;;;;;;;;;;5042688;28;20162;-69
2022/01/25 06:23:38;;;;;;;;;;;;;;;;;;5039814;28;19909;-69
2022/01/25 06:26:03;;;;;;;;;;;;;;;;;;5042773;28;19913;-69
2022/01/25 06:28:29;;;;;;;;;;;;;;;;;;5043899;28;20246;-69
2022/01/25 06:30:54;;;;;;;;;;;;;;;;;;5043316;28;19913;-69
2022/01/25 06:33:19;;;;;;;;;;;;;;;;;;5044085;28;19919;-69
2022/01/25 06:35:46;;;;;;;;;;;;;;;;;;5043287;28;19913;-69
2022/01/25 06:38:11;;;;;;;;;;;;;;;;;;5030411;28;19941;-69
2022/01/25 06:40:36;;;;;;;;;;;;;;;;;;5030511;28;19921;-69
2022/01/25 06:43:01;;;;;;;;;;;;;;;;;;5025338;28;20020;-69
2022/01/25 06:45:27;;;;;;;;;;;;;;;;;;5042687;28;20200;-69
2022/01/25 06:47:52;;;;;;;;;;;;;;;;;;5037989;28;19916;-69
2022/01/25 06:50:17;;;;;;;;;;;;;;;;;;5038109;28;20311;-69
2022/01/25 06:52:43;;;;;;;;;;;;;;;;;;5043442;28;20286;-68
2022/01/25 06:55:08;;;;;;;;;;;;;;;;;;5042299;28;20000;-71
2022/01/25 06:57:33;;;;;;;;;;;;;;;;;;5042180;28;19916;-71
2022/01/25 06:59:58;;;;;;;;;;;;;;;;;;5041554;28;19967;-71
2022/01/25 07:02:23;;;;;;;;;;;;;;;;;;5042347;28;19920;-71
2022/01/25 07:04:48;;;;;;;;;;;;;;;;;;5044974;28;19920;-71
2022/01/25 07:07:13;;;;;;;;;;;;;;;;;;5041752;28;19966;-71
2022/01/25 07:09:39;;;;;;;;;;;;;;;;;;5042011;28;19913;-71
2022/01/25 07:12:04;;;;;;;;;;;;;;;;;;5041464;28;20309;-71
2022/01/25 07:14:29;;;;;;;;;;;;;;;;;;5041423;28;19913;-71
2022/01/25 07:16:54;;;;;;;;;;;;;;;;;;5040541;28;19916;-71
2022/01/25 07:19:20;;;;;;;;;;;;;;;;;;5042428;28;20415;-71
2022/01/25 07:21:45;;;;;;;;;;;;;;;;;;5042000;28;20070;-71
2022/01/25 07:24:10;;;;;;;;;;;;;;;;;;5040571;28;20415;-71
2022/01/25 07:26:35;;;;;;;;;;;;;;;;;;5040784;28;19916;-71
2022/01/25 07:29:00;;;;;;;;;;;;;;;;;;5040825;28;20217;-71
2022/01/25 07:31:25;;;;;;;;;;;;;;;;;;5040968;28;20004;-71
2022/01/25 07:33:51;;;;;;;;;;;;;;;;;;5041543;28;19928;-71
2022/01/25 07:36:16;;;;;;;;;;;;;;;;;;5041648;28;19924;-72
2022/01/25 07:38:41;;;;;;;;;;;;;;;;;;5041218;28;20416;-71
2022/01/25 07:41:06;;;;;;;;;;;;;;;;;;5042343;28;20417;-71
2022/01/25 07:43:31;;;;;;;;;;;;;;;;;;5041414;28;19913;-71
2022/01/25 07:45:58;;;;;;;;;;;;;;;;;;5039451;28;19913;-71
2022/01/25 07:48:24;;;;;;;;;;;;;;;;;;5037346;28;19997;-71
2022/01/25 07:50:49;;;;;;;;;;;;;;;;;;5039742;28;19913;-71
2022/01/25 07:53:15;;;;;;;;;;;;;;;;;;5047058;28;20193;-72
2022/01/25 07:55:40;;;;;;;;;;;;;;;;;;5040965;28;19966;-71
2022/01/25 07:58:05;;;;;;;;;;;;;;;;;;5040816;28;19924;-71
2022/01/25 08:00:30;;;;;;;;;;;;;;;;;;5037640;28;19979;-71
2022/01/25 08:02:55;;;;;;;;;;;;;;;;;;5039303;28;20145;-72
2022/01/25 08:05:20;;;;;;;;;;;;;;;;;;5039305;28;19967;-71
2022/01/25 08:07:46;;;;;;;;;;;;;;;;;;5040532;28;19925;-71
2022/01/25 08:10:11;;;;;;;;;;;;;;;;;;5041432;28;19970;-71
2022/01/25 08:12:36;;;;;;;;;;;;;;;;;;5041558;28;20228;-71
2022/01/25 08:15:03;;;;;;;;;;;;;;;;;;5039849;28;20142;-72
2022/01/25 08:17:28;;;;;;;;;;;;;;;;;;5038602;28;19982;-71
2022/01/25 08:19:53;;;;;;;;;;;;;;;;;;5040870;28;20331;-72
2022/01/25 08:22:19;;;;;;;;;;;;;;;;;;5037707;28;20474;-72
2022/01/25 08:24:44;;;;;;;;;;;;;;;;;;5035745;28;20111;-72
2022/01/25 08:27:09;;;;;;;;;;;;;;;;;;5040962;28;20137;-71
2022/01/25 08:29:34;;;;;;;;;;;;;;;;;;5041179;28;19973;-72
2022/01/25 08:31:59;;;;;;;;;;;;;;;;;;5039541;28;19956;-69
2022/01/25 08:34:24;;;;;;;;;;;;;;;;;;5040658;28;19917;-69
2022/01/25 08:36:49;;;;;;;;;;;;;;;;;;5041377;28;19915;-69
2022/01/25 08:39:14;;;;;;;;;;;;;;;;;;5040741;28;19921;-71
2022/01/25 08:41:39;;;;;;;;;;;;;;;;;;5041315;28;19945;-71
2022/01/25 08:44:05;;;;;;;;;;;;;;;;;;5040178;28;20419;-71
2022/01/25 08:46:30;;;;;;;;;;;;;;;;;;5039717;28;20091;-71
2022/01/25 08:48:55;;;;;;;;;;;;;;;;;;5039590;28;19921;-69
2022/01/25 08:51:20;;;;;;;;;;;;;;;;;;5039933;28;20337;-72
2022/01/25 08:53:45;;;;;;;;;;;;;;;;;;5039696;28;20053;-71
2022/01/25 08:56:10;;;;;;;;;;;;;;;;;;5041228;28;19909;-71
2022/01/25 08:58:35;;;;;;;;;;;;;;;;;;5039216;28;20255;-71
2022/01/25 09:01:01;;;;;;;;;;;;;;;;;;5037059;28;20428;-71
2022/01/25 09:03:26;;;;;;;;;;;;;;;;;;5041982;28;20373;-71
2022/01/25 09:05:51;;;;;;;;;;;;;;;;;;5040339;28;20481;-71
2022/01/25 09:08:21;;;;;;;;;;;;;;;;;;5040603;28;19909;-72
2022/01/25 09:10:46;;;;;;;;;;;;;;;;;;5040216;28;19919;-71
2022/01/25 09:13:11;;;;;;;;;;;;;;;;;;5040701;28;19917;-72
2022/01/25 09:15:36;;;;;;;;;;;;;;;;;;5039858;28;19951;-72
2022/01/25 09:18:02;;;;;;;;;;;;;;;;;;5040338;28;19917;-71
2022/01/25 09:20:27;;;;;;;;;;;;;;;;;;5039467;28;20615;-69
2022/01/25 09:22:52;;;;;;;;;;;;;;;;;;5041242;28;19974;-71
2022/01/25 09:25:18;;;;;;;;;;;;;;;;;;5039285;28;19931;-71
2022/01/25 09:27:43;;;;;;;;;;;;;;;;;;5041616;28;20161;-72
2022/01/25 09:30:09;;;;;;;;;;;;;;;;;;5042763;28;20040;-71
2022/01/25 09:32:34;;;;;;;;;;;;;;;;;;5044308;28;19984;-69
2022/01/25 09:34:59;;;;;;;;;;;;;;;;;;5043399;28;20190;-69
2022/01/25 09:37:24;;;;;;;;;;;;;;;;;;5041995;28;19909;-69
2022/01/25 09:39:49;;;;;;;;;;;;;;;;;;5036360;28;19917;-69
2022/01/25 09:42:14;;;;;;;;;;;;;;;;;;5044553;28;19919;-69
2022/01/25 09:44:39;;;;;;;;;;;;;;;;;;5044098;28;20056;-69
2022/01/25 09:47:04;;;;;;;;;;;;;;;;;;5044554;28;19959;-69
2022/01/25 09:49:30;;;;;;;;;;;;;;;;;;5041815;28;20062;-69
2022/01/25 09:51:55;;;;;;;;;;;;;;;;;;5043400;28;19913;-69
2022/01/25 09:54:20;;;;;;;;;;;;;;;;;;5051093;28;20002;-71
2022/01/25 09:56:45;;;;;;;;;;;;;;;;;;5043561;28;19916;-70
2022/01/25 09:59:10;;;;;;;;;;;;;;;;;;5043739;28;19916;-71
2022/01/25 10:01:37;;;;;;;;;;;;;;;;;;5043426;28;20388;-71
2022/01/25 10:04:04;;;;;;;;;;;;;;;;;;5039724;28;19971;-71
2022/01/25 10:06:29;;;;;;;;;;;;;;;;;;5043213;28;19941;-70
2022/01/25 10:08:54;;;;;;;;;;;;;;;;;;5041110;28;20088;-71
2022/01/25 10:11:21;;;;;;;;;;;;;;;;;;5043041;28;19912;-71
2022/01/25 10:13:48;;;;;;;;;;;;;;;;;;5043403;28;20376;-71
2022/01/25 10:16:13;;;;;;;;;;;;;;;;;;5041148;28;19917;-71
2022/01/25 10:18:38;;;;;;;;;;;;;;;;;;5042046;28;19967;-71
2022/01/25 10:21:03;;;;;;;;;;;;;;;;;;5042532;28;19971;-71
2022/01/25 10:23:31;;;;;;;;;;;;;;;;;;5041894;28;19913;-70
2022/01/25 10:25:56;;;;;;;;;;;;;;;;;;5041750;28;19913;-71
2022/01/25 10:28:21;;;;;;;;;;;;;;;;;;5037791;28;20161;-71
2022/01/25 10:30:47;;;;;;;;;;;;;;;;;;5043588;28;19913;-70
2022/01/25 10:33:12;;;;;;;;;;;;;;;;;;5043159;28;20385;-70
2022/01/25 10:35:37;;;;;;;;;;;;;;;;;;5043553;28;19952;-71
2022/01/25 10:38:03;;;;;;;;;;;;;;;;;;5043120;28;19917;-70
2022/01/25 10:40:28;;;;;;;;;;;;;;;;;;5042337;28;20438;-70
2022/01/25 10:42:53;;;;;;;;;;;;;;;;;;5044141;28;20590;-70
2022/01/25 10:45:19;;;;;;;;;;;;;;;;;;5045077;28;20320;-71
2022/01/25 10:47:45;;;;;;;;;;;;;;;;;;5043633;28;19919;-71
2022/01/25 10:50:10;;;;;;;;;;;;;;;;;;5042094;28;20174;-71
2022/01/25 10:52:36;;;;;;;;;;;;;;;;;;5043678;28;19912;-70
2022/01/25 10:55:01;;;;;;;;;;;;;;;;;;5043005;28;19923;-71
2022/01/25 10:57:27;;;;;;;;;;;;;;;;;;5042535;28;19913;-70
2022/01/25 10:59:52;;;;;;;;;;;;;;;;;;5042450;28;19925;-71
2022/01/25 11:02:17;;;;;;;;;;;;;;;;;;5042551;28;19927;-71
2022/01/25 11:04:42;;;;;;;;;;;;;;;;;;5042202;28;20423;-71
2022/01/25 11:07:07;;;;;;;;;;;;;;;;;;5043159;28;19990;-71
2022/01/25 11:09:36;;;;;;;;;;;;;;;;;;5043840;28;20168;-71
2022/01/25 11:12:02;;;;;;;;;;;;;;;;;;5042665;28;19921;-70
2022/01/25 11:17:11;;;;;;;;;;;;;;;;;;5041534;28;20451;-70
2022/01/25 11:19:36;;;;;;;;;;;;;;;;;;5041018;28;20008;-71
2022/01/25 11:22:01;;;;;;;;;;;;;;;;;;5041065;28;19924;-70
2022/01/25 11:24:26;;;;;;;;;;;;;;;;;;5039394;28;20134;-70
2022/01/25 11:26:51;;;;;;;;;;;;;;;;;;5041019;28;20036;-70
2022/01/25 11:29:17;;;;;;;;;;;;;;;;;;5040195;28;19912;-70
2022/01/25 11:31:42;;;;;;;;;;;;;;;;;;5039522;28;19913;-71
2022/01/25 11:34:08;;;;;;;;;;;;;;;;;;5038600;28;19920;-70
2022/01/25 11:36:33;;;;;;;;;;;;;;;;;;5042066;28;19928;-71
2022/01/25 11:38:58;;;;;;;;;;;;;;;;;;5039323;28;20536;-70
2022/01/25 11:41:24;;;;;;;;;;;;;;;;;;5038216;28;20478;-70
2022/01/25 11:43:49;;;;;;;;;;;;;;;;;;5037198;28;19913;-70
2022/01/25 11:46:14;;;;;;;;;;;;;;;;;;5041183;28;19962;-70
2022/01/25 11:48:39;;;;;;;;;;;;;;;;;;5040663;28;20290;-70
2022/01/25 11:51:04;;;;;;;;;;;;;;;;;;5040961;28;19951;-70
2022/01/25 11:53:30;;;;;;;;;;;;;;;;;;5041488;28;19912;-71
2022/01/25 11:55:55;;;;;;;;;;;;;;;;;;5040597;28;20101;-71
2022/01/25 11:58:20;;;;;;;;;;;;;;;;;;5041115;28;19952;-70
2022/01/25 12:00:45;;;;;;;;;;;;;;;;;;5039280;28;19920;-70
2022/01/25 12:03:10;;;;;;;;;;;;;;;;;;5040390;28;19917;-70
2022/01/25 12:05:35;;;;;;;;;;;;;;;;;;5040430;28;20538;-70
2022/01/25 12:08:00;;;;;;;;;;;;;;;;;;5041826;28;20347;-70
2022/01/25 12:10:26;;;;;;;;;;;;;;;;;;5041076;28;20296;-70
2022/01/25 12:12:51;;;;;;;;;;;;;;;;;;5041577;28;19955;-71
2022/01/25 12:15:19;;;;;;;;;;;;;;;;;;5040418;28;19920;-71
2022/01/25 12:17:44;;;;;;;;;;;;;;;;;;5041595;28;19920;-71
2022/01/25 12:20:10;;;;;;;;;;;;;;;;;;5039608;28;19925;-70
2022/01/25 12:22:40;;;;;;;;;;;;;;;;;;5039931;28;19912;-70
2022/01/25 12:27:30;;;;;;;;;;;;;;;;;;5041409;28;20081;-71
2022/01/25 12:29:55;;;;;;;;;;;;;;;;;;5039147;28;19920;-70
2022/01/25 12:32:20;;;;;;;;;;;;;;;;;;5042194;28;19909;-70
2022/01/25 12:34:46;;;;;;;;;;;;;;;;;;5039784;28;19913;-70
2022/01/25 12:37:11;;;;;;;;;;;;;;;;;;5041557;28;20052;-71
2022/01/25 12:39:36;;;;;;;;;;;;;;;;;;5041112;28;19921;-70
2022/01/25 12:42:01;;;;;;;;;;;;;;;;;;5042064;28;19913;-71
2022/01/25 12:44:26;;;;;;;;;;;;;;;;;;5041392;28;20003;-70
2022/01/25 12:46:51;;;;;;;;;;;;;;;;;;5041139;28;20393;-71
2022/01/25 12:49:20;;;;;;;;;;;;;;;;;;5040469;28;19919;-71
2022/01/25 12:51:45;;;;;;;;;;;;;;;;;;5032582;28;19921;-71
2022/01/25 12:54:11;;;;;;;;;;;;;;;;;;5053275;28;19924;-70
2022/01/25 12:56:36;;;;;;;;;;;;;;;;;;5040857;28;20165;-70
2022/01/25 12:59:01;;;;;;;;;;;;;;;;;;5040386;28;20401;-71
2022/01/25 13:01:26;;;;;;;;;;;;;;;;;;5040501;28;19994;-71
2022/01/25 13:03:52;;;;;;;;;;;;;;;;;;5040223;28;20040;-70
2022/01/25 13:06:17;;;;;;;;;;;;;;;;;;5041208;28;19913;-70
2022/01/25 13:08:47;;;;;;;;;;;;;;;;;;5040428;28;19999;-70
2022/01/25 13:11:13;;;;;;;;;;;;;;;;;;5041730;28;19909;-70
2022/01/25 13:13:46;;;;;;;;;;;;;;;;;;5041528;28;20316;-71
2022/01/25 13:16:11;;;;;;;;;;;;;;;;;;5041048;28;20070;-71
2022/01/25 13:18:36;;;;;;;;;;;;;;;;;;5039980;28;19921;-70
2022/01/25 13:21:01;;;;;;;;;;;;;;;;;;5030401;28;20022;-71
2022/01/25 13:23:27;;;;;;;;;;;;;;;;;;5039759;28;20328;-70
2022/01/25 13:26:05;;;;;;;;;;;;;;;;;;5041722;28;19913;-70
2022/01/25 13:30:59;;;;;;;;;;;;;;;;;;5041331;28;20034;-71
2022/01/25 13:33:24;;;;;;;;;;;;;;;;;;5039586;28;20023;-71
2022/01/25 13:35:53;;;;;;;;;;;;;;;;;;5040206;28;20483;-70
2022/01/25 13:38:18;;;;;;;;;;;;;;;;;;5039652;28;20098;-71
2022/01/25 13:41:21;;;;;;;;;;;;;;;;;;5039628;28;19955;-71
2022/01/25 13:46:06;;;;;;;;;;;;;;;;;;5039985;28;20300;-70
2022/01/25 13:48:31;;;;;;;;;;;;;;;;;;5038664;28;19925;-71
2022/01/25 13:50:56;;;;;;;;;;;;;;;;;;5038969;28;20582;-71
2022/01/25 13:53:22;;;;;;;;;;;;;;;;;;5040487;28;20505;-70
2022/01/25 13:55:47;;;;;;;;;;;;;;;;;;5039887;28;19916;-71
2022/01/25 13:58:12;;;;;;;;;;;;;;;;;;5039845;28;20397;-71
2022/01/25 14:00:37;;;;;;;;;;;;;;;;;;5039395;28;19925;-70
2022/01/25 14:03:02;;;;;;;;;;;;;;;;;;5038638;28;19924;-70
2022/01/25 14:05:30;;;;;;;;;;;;;;;;;;5040403;28;19920;-71
2022/01/25 14:07:55;;;;;;;;;;;;;;;;;;5041254;28;19917;-71
2022/01/25 14:10:25;;;;;;;;;;;;;;;;;;5039584;28;19919;-71
2022/01/25 14:23:45;;;;;;;;;;;;;;;;;;5044350;28;19920;-70
2022/01/25 14:26:11;;;;;;;;;;;;;;;;;;5042952;28;19913;-70
2022/01/25 14:28:45;;;;;;;;;;;;;;;;;;5042201;28;19952;-71
2022/01/25 14:31:10;;;;;;;;;;;;;;;;;;5043171;28;19909;-71
2022/01/25 14:33:35;;;;;;;;;;;;;;;;;;5044294;28;20038;-70
2022/01/25 14:36:00;;;;;;;;;;;;;;;;;;5044468;28;20283;-71
2022/01/25 14:38:25;;;;;;;;;;;;;;;;;;5043701;28;19923;-71
2022/01/25 14:40:51;;;;;;;;;;;;;;;;;;5043677;28;20378;-70
2022/01/25 14:43:16;;;;;;;;;;;;;;;;;;5045660;28;19917;-71
2022/01/25 14:45:41;;;;;;;;;;;;;;;;;;5043430;28;19986;-71
2022/01/25 14:48:06;;;;;;;;;;;;;;;;;;5044153;28;19920;-70
2022/01/25 14:50:33;;;;;;;;;;;;;;;;;;5041123;28;19912;-70
2022/01/25 14:52:58;;;;;;;;;;;;;;;;;;5044093;28;19920;-71
2022/01/25 14:55:24;;;;;;;;;;;;;;;;;;5036281;28;20159;-71
2022/01/25 14:58:02;;;;;;;;;;;;;;;;;;5042804;28;20289;-71
2022/01/25 15:00:28;;;;;;;;;;;;;;;;;;5036375;28;20036;-70
2022/01/25 15:02:53;;;;;;;;;;;;;;;;;;5043262;28;20477;-71
2022/01/25 15:05:18;;;;;;;;;;;;;;;;;;5042950;28;20313;-71
2022/01/25 15:07:43;;;;;;;;;;;;;;;;;;5043547;28;19913;-71
2022/01/25 15:10:10;;;;;;;;;;;;;;;;;;5043285;28;19947;-71
2022/01/25 15:12:41;;;;;;;;;;;;;;;;;;5024612;28;20490;-71
2022/01/25 15:15:11;;;;;;;;;;;;;;;;;;5042425;28;20011;-71
2022/01/25 15:17:36;;;;;;;;;;;;;;;;;;5042744;28;20380;-74
2022/01/25 15:20:01;;;;;;;;;;;;;;;;;;5041622;28;19932;-70
2022/01/25 15:22:28;;;;;;;;;;;;;;;;;;5041396;28;19944;-70
2022/01/25 15:24:53;;;;;;;;;;;;;;;;;;5042198;28;19931;-71
2022/01/25 15:27:21;;;;;;;;;;;;;;;;;;5041547;28;19920;-71
2022/01/25 15:29:46;;;;;;;;;;;;;;;;;;5040018;28;20330;-70
2022/01/25 15:32:12;;;;;;;;;;;;;;;;;;5036274;28;20409;-70
2022/01/25 15:34:39;;;;;;;;;;;;;;;;;;5037489;28;19921;-70
2022/01/25 15:37:04;;;;;;;;;;;;;;;;;;5037035;28;20164;-70
2022/01/25 15:39:29;;;;;;;;;;;;;;;;;;5038828;28;20106;-71
2022/01/25 15:41:57;;;;;;;;;;;;;;;;;;5029615;28;20071;-70
2022/01/25 15:44:23;;;;;;;;;;;;;;;;;;5038820;28;20011;-71
2022/01/25 15:49:13;;;;;;;;;;;;;;;;;;5033703;28;19916;-70
2022/01/25 15:51:38;;;;;;;;;;;;;;;;;;5033799;28;20186;-70
2022/01/25 15:54:03;;;;;;;;;;;;;;;;;;5034857;28;20207;-70
2022/01/25 15:56:28;;;;;;;;;;;;;;;;;;5036482;28;19917;-70
2022/01/25 15:58:53;;;;;;;;;;;;;;;;;;5036207;28;19967;-70
2022/01/25 16:01:19;;;;;;;;;;;;;;;;;;5036954;28;19928;-71
2022/01/25 16:03:44;;;;;;;;;;;;;;;;;;5037985;28;20213;-70
2022/01/25 16:06:09;;;;;;;;;;;;;;;;;;5037192;28;20411;-70
2022/01/25 16:08:34;;;;;;;;;;;;;;;;;;5039461;28;19917;-70
2022/01/25 16:10:59;;;;;;;;;;;;;;;;;;5038881;28;20138;-70
2022/01/25 16:13:25;;;;;;;;;;;;;;;;;;5037952;28;19920;-70
2022/01/25 16:15:50;;;;;;;;;;;;;;;;;;5037333;28;19917;-70
2022/01/25 16:18:15;;;;;;;;;;;;;;;;;;5020306;28;20008;-70
2022/01/25 16:20:41;;;;;;;;;;;;;;;;;;5037761;28;19925;-70
2022/01/25 16:23:06;;;;;;;;;;;;;;;;;;5038013;28;19970;-70
2022/01/25 16:25:31;;;;;;;;;;;;;;;;;;5038228;28;19920;-70
2022/01/25 16:27:56;;;;;;;;;;;;;;;;;;5041125;28;19984;-70
2022/01/25 16:30:21;;;;;;;;;;;;;;;;;;5037289;28;19960;-71
2022/01/25 16:32:47;;;;;;;;;;;;;;;;;;5039006;28;20163;-70
2022/01/25 16:35:12;;;;;;;;;;;;;;;;;;5039239;28;19943;-70
2022/01/25 16:37:37;;;;;;;;;;;;;;;;;;5037762;28;19921;-70
2022/01/25 16:40:02;;;;;;;;;;;;;;;;;;5035584;28;20456;-70
2022/01/25 16:42:27;;;;;;;;;;;;;;;;;;5035962;28;19921;-70
2022/01/25 16:44:56;;;;;;;;;;;;;;;;;;5035262;28;20038;-71
2022/01/25 16:47:22;;;;;;;;;;;;;;;;;;5037233;28;20475;-70
2022/01/25 16:49:47;;;;;;;;;;;;;;;;;;5037832;28;19948;-70
2022/01/25 16:52:12;;;;;;;;;;;;;;;;;;5034342;28;19970;-70
2022/01/25 16:54:37;;;;;;;;;;;;;;;;;;5036106;28;19912;-70
2022/01/25 16:57:03;;;;;;;;;;;;;;;;;;5035303;28;20289;-70
2022/01/25 16:59:29;;;;;;;;;;;;;;;;;;5031647;28;19921;-70
2022/01/25 17:01:54;;;;;;;;;;;;;;;;;;5032270;28;20289;-70
2022/01/25 17:04:19;;;;;;;;;;;;;;;;;;5034480;28;19932;-70
2022/01/25 17:06:44;;;;;;;;;;;;;;;;;;5036545;28;19928;-70
2022/01/25 17:09:09;;;;;;;;;;;;;;;;;;5036114;28;19916;-70
2022/01/25 17:11:35;;;;;;;;;;;;;;;;;;5035564;28;19921;-70
2022/01/25 17:14:01;;;;;;;;;;;;;;;;;;5034377;28;19917;-70
2022/01/25 17:16:26;;;;;;;;;;;;;;;;;;5036882;28;19994;-70
2022/01/25 17:18:51;;;;;;;;;;;;;;;;;;5036674;28;20127;-70
2022/01/25 17:21:19;;;;;;;;;;;;;;;;;;5035317;28;20543;-70
2022/01/25 17:23:44;;;;;;;;;;;;;;;;;;5036314;28;19987;-70
2022/01/25 17:26:09;;;;;;;;;;;;;;;;;;5035807;28;19916;-70
2022/01/25 17:28:34;;;;;;;;;;;;;;;;;;5036295;28;20000;-70
2022/01/25 17:30:59;;;;;;;;;;;;;;;;;;5035696;28;20150;-70
2022/01/25 17:33:25;;;;;;;;;;;;;;;;;;5032471;28;19921;-70
2022/01/25 17:35:50;;;;;;;;;;;;;;;;;;5032089;28;20002;-70
2022/01/25 17:38:16;;;;;;;;;;;;;;;;;;5032997;28;20027;-70
2022/01/25 17:40:41;;;;;;;;;;;;;;;;;;5030807;28;19931;-70
2022/01/25 17:43:06;;;;;;;;;;;;;;;;;;5032853;28;20067;-70
2022/01/25 17:45:32;;;;;;;;;;;;;;;;;;5032996;28;20102;-70
2022/01/25 17:47:57;;;;;;;;;;;;;;;;;;5036280;28;19909;-70
2022/01/25 17:50:22;;;;;;;;;;;;;;;;;;5042044;28;20138;-70
2022/01/25 17:52:47;;;;;;;;;;;;;;;;;;5038886;28;19913;-70
2022/01/25 17:55:13;;;;;;;;;;;;;;;;;;5040722;28;19987;-70
2022/01/25 17:57:38;;;;;;;;;;;;;;;;;;5039684;28;20070;-70
2022/01/25 18:00:03;;;;;;;;;;;;;;;;;;5039491;28;19931;-70
2022/01/25 18:02:30;;;;;;;;;;;;;;;;;;5039305;28;19966;-70
2022/01/25 18:04:55;;;;;;;;;;;;;;;;;;5039685;28;19982;-70
2022/01/25 18:07:21;;;;;;;;;;;;;;;;;;5036505;28;20357;-70
2022/01/25 18:09:46;;;;;;;;;;;;;;;;;;5036141;28;19916;-69
2022/01/25 18:12:11;;;;;;;;;;;;;;;;;;5040257;28;19924;-70
2022/01/25 18:14:36;;;;;;;;;;;;;;;;;;5041558;28;19917;-70
2022/01/25 18:17:01;;;;;;;;;;;;;;;;;;5021329;28;19928;-69
2022/01/25 18:19:26;;;;;;;;;;;;;;;;;;5041505;28;19929;-70
2022/01/25 18:21:53;;;;;;;;;;;;;;;;;;5039404;28;19917;-70
2022/01/25 18:24:22;;;;;;;;;;;;;;;;;;5040775;28;20482;-70
2022/01/25 18:26:51;;;;;;;;;;;;;;;;;;5039915;28;19967;-70
2022/01/25 18:29:16;;;;;;;;;;;;;;;;;;5040397;28;20361;-70
2022/01/25 18:31:41;;;;;;;;;;;;;;;;;;5041750;28;20162;-70
2022/01/25 18:34:07;;;;;;;;;;;;;;;;;;5041361;28;20041;-70